Terminal Aerodrome Forecast
Issued by NWS

Current Version | Previous Version | Text Only | Print | Product List | Glossary Off
Versions: 1 2 3 4 5 6 7 8 9 10 11 12 13 14 15 16 17 18 19 20 21 22

000
FTUS41 KRLX 260500 RRA
TAFCKB
TAF
KCKB 260545Z 2606/2706 36004KT P6SM OVC130
     FM261300 VRB03KT P6SM OVC035
     FM262000 34004KT P6SM OVC025
     FM262300 33004KT 3SM -SHSN BR OVC010
     FM270000 33004KT 3SM -SHSN BR OVC008=

USA.gov is the U.S. government's official web portal to all federal, state and local government web resources and services.